Decoded Metar for KLRF (JACKSONVILLE in AR, USA) (IATA:LRF) | Meteo·Mobile Aviation Weather
aviador You're here:

KLRF Decoded Metar

JACKSONVILLE in AR, USA
Report Time2019-07-22 15:56:00
UTC Time2019-07-22 16:24:30
Flight Rules vfr VFR
Wind270° at 05 kt
W.Decomp.*RWY 25: 4.7 kt HW 1.6 kt RCW
Visibility9999 m
Phenomena:N/A
Clouds:Few 110 Hf
Overcast 140 Hf
Expected CloudBase > 1,600 ft AGL from Temp-Dew spread
Ceiling14,000 ft
Temp28°C (ISA +14)
Dew Point24°C (79% RH)
Heat Index31.9°C
QNH1015 hPa
Density Alt2,205 ft
Elevation312 ft
Report Wrong Elevation
Raw Report
KLRF 221556Z AUTO 27005KT 10SM FEW110 OVC140 28/24 A2997 RMK AO2
SLP148 T02800235=

Extra information for KLRF:More info

Metar Taf Metar & Taf Last 4 Metars F.Rules Stats Wind Profile Meteogram Temp Stats Airport Information Weather charts Add Link Nearby VenuesMetar ALERT Operation Metar Decoded Social comments

AIRNAV info for KLRF